createdAt,value
2017-10-11T00:00:37.514Z,15.09
2017-10-11T00:01:59.755Z,14.98
2017-10-11T00:03:21.945Z,15.03
2017-10-11T00:04:44.267Z,15.1
2017-10-11T00:06:06.470Z,15.02
2017-10-11T00:07:27.703Z,15.02
2017-10-11T00:08:50.015Z,15.09
2017-10-11T00:10:11.877Z,15.02
2017-10-11T00:11:33.439Z,15.01
2017-10-11T00:12:55.614Z,15.09
2017-10-11T00:14:17.810Z,15.02
2017-10-11T00:15:40.015Z,15.03
2017-10-11T00:17:02.540Z,14.92
2017-10-11T00:18:25.088Z,14.96
2017-10-11T00:19:47.706Z,15.02
2017-10-11T00:21:09.546Z,14.99
2017-10-11T00:22:31.067Z,15.07
2017-10-11T00:23:53.217Z,15.07
2017-10-11T00:25:15.403Z,15.02
2017-10-11T00:26:37.254Z,14.91
2017-10-11T00:27:59.456Z,15.07
2017-10-11T00:29:21.337Z,14.98
2017-10-11T00:30:43.845Z,15.1
2017-10-11T00:32:06.099Z,15.07
2017-10-11T00:33:27.959Z,15.07
2017-10-11T00:34:49.549Z,15.09
2017-10-11T00:36:11.737Z,15.07
2017-10-11T00:37:33.936Z,15.06
2017-10-11T00:38:56.461Z,15.03
2017-10-11T00:40:17.989Z,15.06
2017-10-11T00:41:39.836Z,15.03
2017-10-11T00:43:01.046Z,15.14
2017-10-11T00:44:22.972Z,15.07
2017-10-11T00:45:45.159Z,15.1
2017-10-11T00:47:07.454Z,15.11
2017-10-11T00:48:29.001Z,15.14
2017-10-11T00:49:50.852Z,15.09
2017-10-11T00:51:12.667Z,15.07
2017-10-11T00:52:35.177Z,15.03
2017-10-11T00:53:57.028Z,14.96
2017-10-11T00:55:19.229Z,15.06
2017-10-11T00:56:41.528Z,15.09
2017-10-11T00:58:04.165Z,14.98
2017-10-11T00:59:26.111Z,14.98
2017-10-11T01:00:48.280Z,15.03
2017-10-11T01:02:10.125Z,15.01
2017-10-11T01:03:31.660Z,15.01
2017-10-11T01:04:53.536Z,15.02
2017-10-11T01:06:15.744Z,15.11
2017-10-11T01:07:38.236Z,15.07
2017-10-11T01:09:00.094Z,15.03
2017-10-11T01:10:22.279Z,15.01
2017-10-11T01:11:44.824Z,15.06
2017-10-11T01:13:07.301Z,14.98
2017-10-11T01:14:29.578Z,15.11
2017-10-11T01:15:52.084Z,15.01
2017-10-11T01:17:14.396Z,15.01
2017-10-11T01:18:36.906Z,15.02
2017-10-11T01:19:59.416Z,14.99
2017-10-11T01:21:21.277Z,15.07
2017-10-11T01:22:43.470Z,15.01
2017-10-11T01:24:05.315Z,15.02
2017-10-11T01:25:26.837Z,15.01
2017-10-11T01:26:49.342Z,15.07
2017-10-11T01:28:10.957Z,15.06
2017-10-11T01:29:33.487Z,15.02
2017-10-11T01:30:56.057Z,15.06
2017-10-11T01:32:17.593Z,14.99
2017-10-11T01:33:39.475Z,15.06
2017-10-11T01:35:01.969Z,15.01
2017-10-11T01:36:23.886Z,15.07
2017-10-11T01:37:45.409Z,15.03
2017-10-11T01:39:07.596Z,15.03
2017-10-11T01:40:30.234Z,15.01
2017-10-11T01:41:52.417Z,14.95
2017-10-11T01:43:14.405Z,14.96
2017-10-11T01:44:35.908Z,15.06
2017-10-11T01:45:58.722Z,15.01
2017-10-11T01:47:20.701Z,15.09
2017-10-11T01:48:42.875Z,15.16
2017-10-11T01:50:04.716Z,15.06
2017-10-11T01:51:27.398Z,15.06
2017-10-11T01:52:49.607Z,15.13
2017-10-11T01:54:10.838Z,14.99
2017-10-11T01:55:33.357Z,15.06
2017-10-11T01:56:55.534Z,15.1
2017-10-11T01:58:17.747Z,15.06
2017-10-11T01:59:40.263Z,15.06
2017-10-11T02:01:02.128Z,15.1
2017-10-11T02:02:24.321Z,15.07
2017-10-11T02:03:46.847Z,15.11
2017-10-11T02:05:09.366Z,15.09
2017-10-11T02:06:31.226Z,15.06
2017-10-11T02:07:53.384Z,15.17
2017-10-11T02:09:15.344Z,14.96
2017-10-11T02:10:38.017Z,15.13
2017-10-11T02:12:00.540Z,15.06
2017-10-11T02:13:23.095Z,15.02
2017-10-11T02:14:44.937Z,15.03
2017-10-11T02:16:07.126Z,15.01
2017-10-11T02:17:29.342Z,14.91
2017-10-11T02:18:51.455Z,14.96
2017-10-11T02:20:13.681Z,15.02
2017-10-11T02:21:35.859Z,15.01
2017-10-11T02:22:57.736Z,14.98
2017-10-11T02:24:20.379Z,15.01
2017-10-11T02:25:42.232Z,15.02
2017-10-11T02:27:04.406Z,14.92
2017-10-11T02:28:26.675Z,14.98
2017-10-11T02:29:49.215Z,14.98
2017-10-11T02:31:11.076Z,15.02
2017-10-11T02:32:33.258Z,15.06
2017-10-11T02:33:55.440Z,14.99
2017-10-11T02:35:17.345Z,15.07
2017-10-11T02:36:39.520Z,15.01
2017-10-11T02:38:01.723Z,14.98
2017-10-11T02:39:23.235Z,15.06
2017-10-11T02:40:45.730Z,15.09
2017-10-11T02:42:06.918Z,15.1
2017-10-11T02:43:28.768Z,15.06
2017-10-11T02:44:51.011Z,15.03
2017-10-11T02:46:13.107Z,15.1
2017-10-11T02:47:35.429Z,15.09
2017-10-11T02:48:57.297Z,15.13
2017-10-11T02:50:19.484Z,15.2
2017-10-11T02:51:42.055Z,15.16
2017-10-11T02:53:03.302Z,15.11
2017-10-11T02:54:25.814Z,15.19
2017-10-11T02:55:48.000Z,15.2
2017-10-11T02:57:09.594Z,15.1
2017-10-11T02:58:31.440Z,15.1
2017-10-11T02:59:53.306Z,15.21
2017-10-11T03:01:15.345Z,15.21
2017-10-11T03:02:37.364Z,15.17
2017-10-11T03:03:58.886Z,15.13
2017-10-11T03:05:20.725Z,15.2
2017-10-11T03:06:42.626Z,15.19
2017-10-11T03:08:05.175Z,15.1
2017-10-11T03:09:27.357Z,15.09
2017-10-11T03:10:49.925Z,15.06
2017-10-11T03:12:11.441Z,15.13
2017-10-11T03:13:32.963Z,15.09
2017-10-11T03:14:54.808Z,15.11
2017-10-11T03:16:17.393Z,15.01
2017-10-11T03:17:39.343Z,15.07
2017-10-11T03:19:01.192Z,15.1
2017-10-11T03:20:23.395Z,15.09
2017-10-11T03:21:45.681Z,15.01
2017-10-11T03:23:07.902Z,15.01
2017-10-11T03:24:29.425Z,15.02
2017-10-11T03:25:50.923Z,15.06
2017-10-11T03:27:12.816Z,14.99
2017-10-11T03:28:35.015Z,15.03
2017-10-11T03:29:57.454Z,15.02
2017-10-11T03:31:18.965Z,14.98
2017-10-11T03:32:41.155Z,14.98
2017-10-11T03:34:02.695Z,15.07
2017-10-11T03:35:24.865Z,15.03
2017-10-11T03:36:46.425Z,14.98
2017-10-11T03:38:08.610Z,15.03
2017-10-11T03:39:30.814Z,14.88
2017-10-11T03:40:52.702Z,14.81
2017-10-11T03:42:15.220Z,14.72
2017-10-11T03:43:37.104Z,14.69
2017-10-11T03:44:59.026Z,14.62
2017-10-11T03:46:21.525Z,14.72
2017-10-11T03:47:43.771Z,14.81
2017-10-11T03:49:05.956Z,14.89
2017-10-11T03:50:28.485Z,14.92
2017-10-11T03:51:51.010Z,15.01
2017-10-11T03:53:13.194Z,14.98
2017-10-11T03:54:35.046Z,14.98
2017-10-11T03:55:56.563Z,15.01
2017-10-11T03:57:18.349Z,14.98
2017-10-11T03:58:40.235Z,14.88
2017-10-11T04:00:01.416Z,14.86
2017-10-11T04:01:23.595Z,14.83
2017-10-11T04:02:46.114Z,14.86
2017-10-11T04:04:07.626Z,14.78
2017-10-11T04:05:29.465Z,14.75
2017-10-11T04:06:51.325Z,14.69
2017-10-11T04:08:13.656Z,14.61
2017-10-11T04:09:36.537Z,14.61
2017-10-11T04:10:59.125Z,14.58
2017-10-11T04:12:21.665Z,14.57
2017-10-11T04:13:43.925Z,14.62
2017-10-11T04:15:05.464Z,14.77
2017-10-11T04:16:27.795Z,14.73
2017-10-11T04:17:49.675Z,14.89
2017-10-11T04:19:11.841Z,14.89
2017-10-11T04:20:33.711Z,14.99
2017-10-11T04:21:55.575Z,14.99
2017-10-11T04:23:16.766Z,15.02
2017-10-11T04:24:39.282Z,15.01
2017-10-11T04:26:01.594Z,14.98
2017-10-11T04:27:23.135Z,14.95
2017-10-11T04:28:45.362Z,15.03
2017-10-11T04:30:07.535Z,15.02
2017-10-11T04:31:29.817Z,15.02
2017-10-11T04:32:52.334Z,15.01
2017-10-11T04:34:14.614Z,14.92
2017-10-11T04:35:36.214Z,14.98
2017-10-11T04:36:57.735Z,15.06
2017-10-11T04:38:19.238Z,15.06
2017-10-11T04:39:41.081Z,15.02
2017-10-11T04:41:02.955Z,15.11
2017-10-11T04:42:25.150Z,15.02
2017-10-11T04:43:46.679Z,15.09
2017-10-11T04:45:08.873Z,15.1
2017-10-11T04:46:31.354Z,15.06
2017-10-11T04:47:53.202Z,15.09
2017-10-11T04:49:15.060Z,15.02
2017-10-11T04:50:36.576Z,15.09
2017-10-11T04:51:59.394Z,15.07
2017-10-11T04:53:21.590Z,15.1
2017-10-11T04:54:43.791Z,15.06
2017-10-11T04:56:05.740Z,15.14
2017-10-11T04:57:27.980Z,15.16
2017-10-11T04:58:50.254Z,15.03
2017-10-11T05:00:11.774Z,15.16
2017-10-11T05:01:33.942Z,15.21
2017-10-11T05:02:56.903Z,15.25
2017-10-11T05:04:19.414Z,15.19
2017-10-11T05:05:41.596Z,15.21
2017-10-11T05:07:03.795Z,15.16
2017-10-11T05:08:26.318Z,15.16
2017-10-11T05:09:48.855Z,15.25
2017-10-11T05:11:10.754Z,15.14
2017-10-11T05:12:32.632Z,15.25
2017-10-11T05:13:54.164Z,15.21
2017-10-11T05:15:15.691Z,15.14
2017-10-11T05:16:37.864Z,15.14
2017-10-11T05:17:59.733Z,15.14
2017-10-11T05:19:21.918Z,15.21
2017-10-11T05:20:44.204Z,15.16
2017-10-11T05:22:05.413Z,15.13
2017-10-11T05:23:27.012Z,15.14
2017-10-11T05:24:49.498Z,15.13
2017-10-11T05:26:11.358Z,15.16
2017-10-11T05:27:33.937Z,15.13
2017-10-11T05:28:56.102Z,15.09
2017-10-11T05:30:18.214Z,15.07
2017-10-11T05:31:40.768Z,15.02
2017-10-11T05:33:02.954Z,15.03
2017-10-11T05:34:25.144Z,15.03
2017-10-11T05:35:47.002Z,15.02
2017-10-11T05:37:09.206Z,15.03
2017-10-11T05:38:31.767Z,15.02
2017-10-11T05:39:53.964Z,15.02
2017-10-11T05:41:15.746Z,15.1
2017-10-11T05:42:37.931Z,14.99
2017-10-11T05:44:00.572Z,14.95
2017-10-11T05:45:22.763Z,15.02
2017-10-11T05:46:45.221Z,14.99
2017-10-11T05:48:06.748Z,14.99
2017-10-11T05:49:28.604Z,15.02
2017-10-11T05:50:51.151Z,15.03
2017-10-11T05:52:13.344Z,15.03
2017-10-11T05:53:34.867Z,14.99
2017-10-11T05:54:57.587Z,15.03
2017-10-11T05:56:20.156Z,14.99
2017-10-11T05:57:42.985Z,14.95
2017-10-11T05:59:05.167Z,15.01
2017-10-11T06:00:26.029Z,14.99
2017-10-11T06:01:48.563Z,14.95
2017-10-11T06:03:10.745Z,14.98
2017-10-11T06:04:33.042Z,15.01
2017-10-11T06:05:55.555Z,14.99
2017-10-11T06:07:17.756Z,15.01
2017-10-11T06:08:40.262Z,14.99
2017-10-11T06:10:01.804Z,14.96
2017-10-11T06:11:24.029Z,14.99
2017-10-11T06:12:45.534Z,14.96
2017-10-11T06:14:07.404Z,14.99
2017-10-11T06:15:29.254Z,14.98
2017-10-11T06:16:51.107Z,14.94
2017-10-11T06:18:13.304Z,14.94
2017-10-11T06:19:35.607Z,14.95
2017-10-11T06:20:57.844Z,14.88
2017-10-11T06:22:20.033Z,14.92
2017-10-11T06:23:42.286Z,14.84
2017-10-11T06:25:04.805Z,14.91
2017-10-11T06:26:27.423Z,14.88
2017-10-11T06:27:49.662Z,14.92
2017-10-11T06:29:11.227Z,14.99
2017-10-11T06:30:33.718Z,15.02
2017-10-11T06:31:55.625Z,14.98
2017-10-11T06:33:17.167Z,15.01
2017-10-11T06:34:39.355Z,15.01
2017-10-11T06:36:01.773Z,15.01
2017-10-11T06:37:23.666Z,15.01
2017-10-11T06:38:46.356Z,14.92
2017-10-11T06:40:09.005Z,15.01
2017-10-11T06:41:30.975Z,15.01
2017-10-11T06:42:52.867Z,14.98
2017-10-11T06:44:15.129Z,15.06
2017-10-11T06:45:37.023Z,14.99
2017-10-11T06:46:59.207Z,15.02
2017-10-11T06:48:21.445Z,14.99
2017-10-11T06:49:43.296Z,14.99
2017-10-11T06:51:05.165Z,14.95
2017-10-11T06:52:27.755Z,15.01
2017-10-11T06:53:49.944Z,14.99
2017-10-11T06:55:11.809Z,14.99
2017-10-11T06:56:33.989Z,14.98
2017-10-11T06:57:56.364Z,15.02
2017-10-11T06:59:18.603Z,14.99
2017-10-11T07:00:41.154Z,15.14
2017-10-11T07:02:03.704Z,15.14
2017-10-11T07:03:25.892Z,15.03
2017-10-11T07:04:48.176Z,15.03
2017-10-11T07:06:10.373Z,15.02
2017-10-11T07:07:32.576Z,14.95
2017-10-11T07:08:54.664Z,14.89
2017-10-11T07:10:16.545Z,15.01
2017-10-11T07:11:38.762Z,14.99
2017-10-11T07:13:00.968Z,14.95
2017-10-11T07:14:23.855Z,15.02
2017-10-11T07:15:46.072Z,15.02
2017-10-11T07:17:07.942Z,14.96
2017-10-11T07:18:30.152Z,14.98
2017-10-11T07:19:52.598Z,14.94
2017-10-11T07:21:14.510Z,14.98
2017-10-11T07:22:36.706Z,14.95
2017-10-11T07:23:58.568Z,14.98
2017-10-11T07:25:20.759Z,14.95
2017-10-11T07:26:43.014Z,14.98
2017-10-11T07:28:04.226Z,14.99
2017-10-11T07:29:26.102Z,14.99
2017-10-11T07:30:48.635Z,15.02
2017-10-11T07:32:11.154Z,15.01
2017-10-11T07:33:33.026Z,14.98
2017-10-11T07:34:55.622Z,14.95
2017-10-11T07:36:17.474Z,15.02
2017-10-11T07:37:39.419Z,14.98
2017-10-11T07:39:01.272Z,15.03
2017-10-11T07:40:23.466Z,15.02
2017-10-11T07:41:45.340Z,15.01
2017-10-11T07:43:07.185Z,15.03
2017-10-11T07:44:29.065Z,15.11
2017-10-11T07:45:50.986Z,15.09
2017-10-11T07:47:13.497Z,15.1
2017-10-11T07:48:36.065Z,15.13
2017-10-11T07:49:58.276Z,15.01
2017-10-11T07:51:20.135Z,15.09
2017-10-11T07:52:42.274Z,15.19
2017-10-11T07:54:04.152Z,15.11
2017-10-11T07:55:26.349Z,15.11
2017-10-11T07:56:48.524Z,15.14
2017-10-11T07:58:11.116Z,15.25
2017-10-11T07:59:33.800Z,15.17
2017-10-11T08:00:56.014Z,15.21
2017-10-11T08:02:18.205Z,15.17
2017-10-11T08:03:40.073Z,15.2
2017-10-11T08:05:02.599Z,15.14
2017-10-11T08:06:25.123Z,15.23
2017-10-11T08:07:47.315Z,15.34
2017-10-11T08:09:09.843Z,15.36
2017-10-11T08:10:31.028Z,15.41
2017-10-11T08:11:53.557Z,15.51
2017-10-11T08:13:15.407Z,15.57
2017-10-11T08:14:37.254Z,15.53
2017-10-11T08:15:59.453Z,15.67
2017-10-11T08:17:20.674Z,15.74
2017-10-11T08:18:42.594Z,15.86
2017-10-11T08:20:05.303Z,16.04
2017-10-11T08:21:27.617Z,16.2
2017-10-11T08:22:50.198Z,16.38
2017-10-11T08:24:12.717Z,16.66
2017-10-11T08:25:35.262Z,16.86
2017-10-11T08:26:57.465Z,17.07
2017-10-11T08:28:18.684Z,16.97
2017-10-11T08:29:41.205Z,16.82
2017-10-11T08:31:03.752Z,16.71
2017-10-11T08:32:25.632Z,17
2017-10-11T08:33:47.153Z,16.97
2017-10-11T08:35:09.675Z,16.98
2017-10-11T08:36:31.576Z,16.93
2017-10-11T08:37:53.107Z,16.94
2017-10-11T08:39:15.307Z,16.93
2017-10-11T08:40:37.523Z,16.88
2017-10-11T08:41:59.736Z,16.89
2017-10-11T08:43:22.312Z,16.88
2017-10-11T08:44:44.845Z,16.88
2017-10-11T08:46:06.756Z,16.88
2017-10-11T08:47:29.574Z,16.67
2017-10-11T08:48:51.788Z,16.5
2017-10-11T08:50:13.645Z,16.43
2017-10-11T08:51:36.179Z,16.39
2017-10-11T08:52:58.704Z,16.43
2017-10-11T08:54:20.584Z,16.42
2017-10-11T08:55:43.110Z,16.35
2017-10-11T08:57:05.312Z,16.43
2017-10-11T08:58:26.864Z,16.43
2017-10-11T08:59:49.485Z,16.45
2017-10-11T09:01:11.715Z,16.49
2017-10-11T09:02:33.922Z,16.28
2017-10-11T09:03:56.534Z,16.28
2017-10-11T09:05:19.077Z,16.31
2017-10-11T09:06:40.945Z,16.27
2017-10-11T09:08:02.805Z,16.49
2017-10-11T09:09:25.045Z,16.57
2017-10-11T09:10:46.557Z,16.75
2017-10-11T09:12:08.413Z,16.64
2017-10-11T09:13:30.299Z,16.83
2017-10-11T09:14:52.591Z,16.83
2017-10-11T09:16:14.822Z,16.88
2017-10-11T09:17:37.070Z,16.83
2017-10-11T09:18:58.951Z,16.81
2017-10-11T09:20:21.344Z,16.78
2017-10-11T09:21:43.561Z,16.86
2017-10-11T09:23:05.766Z,16.85
2017-10-11T09:24:28.281Z,16.88
2017-10-11T09:25:50.117Z,16.97
2017-10-11T09:27:12.145Z,16.85
2017-10-11T09:28:34.692Z,16.85
2017-10-11T09:29:55.987Z,16.89
2017-10-11T09:31:18.174Z,17.03
2017-10-11T09:32:40.369Z,17.12
2017-10-11T09:34:02.583Z,17.38
2017-10-11T09:35:24.793Z,17.46
2017-10-11T09:36:46.646Z,17.34
2017-10-11T09:38:07.835Z,17.31
2017-10-11T09:39:29.692Z,17.34
2017-10-11T09:40:51.543Z,17.33
2017-10-11T09:42:14.055Z,17.3
2017-10-11T09:43:36.238Z,17.34
2017-10-11T09:44:58.126Z,17.37
2017-10-11T09:46:20.673Z,17.54
2017-10-11T09:47:43.192Z,17.4
2017-10-11T09:49:05.721Z,17.36
2017-10-11T09:50:27.595Z,17.21
2017-10-11T09:51:50.122Z,17.18
2017-10-11T09:53:12.453Z,17.31
2017-10-11T09:54:34.973Z,17.33
2017-10-11T09:55:57.210Z,17.19
2017-10-11T09:57:19.075Z,17.18
2017-10-11T09:58:41.274Z,17.28
2017-10-11T10:00:03.461Z,17.31
2017-10-11T10:01:25.705Z,17.54
2017-10-11T10:02:47.932Z,17.58
2017-10-11T10:04:09.454Z,17.56
2017-10-11T10:05:32.033Z,17.43
2017-10-11T10:06:54.384Z,17.48
2017-10-11T10:08:16.583Z,17.34
2017-10-11T10:09:39.164Z,17.3
2017-10-11T10:11:01.382Z,17.16
2017-10-11T10:12:22.921Z,17.14
2017-10-11T10:13:45.103Z,17.06
2017-10-11T10:15:07.076Z,17.03
2017-10-11T10:16:29.264Z,16.91
2017-10-11T10:17:51.782Z,16.94
2017-10-11T10:19:14.014Z,16.94
2017-10-11T10:20:36.212Z,17.07
2017-10-11T10:21:58.763Z,17.07
2017-10-11T10:23:20.980Z,17.03
2017-10-11T10:24:43.519Z,17.12
2017-10-11T10:26:06.171Z,17.12
2017-10-11T10:27:28.066Z,17.11
2017-10-11T10:28:50.243Z,17.12
2017-10-11T10:30:12.127Z,17.16
2017-10-11T10:31:34.001Z,17.31
2017-10-11T10:32:56.217Z,17.46
2017-10-11T10:34:18.084Z,17.56
2017-10-11T10:35:40.288Z,17.62
2017-10-11T10:37:02.156Z,17.79
2017-10-11T10:38:25.347Z,17.89
2017-10-11T10:39:47.898Z,17.95
2017-10-11T10:41:10.429Z,17.96
2017-10-11T10:42:32.011Z,17.9
2017-10-11T10:43:54.205Z,17.9
2017-10-11T10:45:16.747Z,17.87
2017-10-11T10:46:39.119Z,17.7
2017-10-11T10:48:01.645Z,17.58
2017-10-11T10:49:23.534Z,17.55
2017-10-11T10:50:45.743Z,17.55
2017-10-11T10:52:07.626Z,17.54
2017-10-11T10:53:29.526Z,17.46
2017-10-11T10:54:52.075Z,17.52
2017-10-11T10:56:14.695Z,17.33
2017-10-11T10:57:36.934Z,17.25
2017-10-11T10:58:59.549Z,17.18
2017-10-11T11:00:21.750Z,17.11
2017-10-11T11:01:44.296Z,17.11
2017-10-11T11:03:06.509Z,17.14
2017-10-11T11:04:29.052Z,17.21
2017-10-11T11:05:51.594Z,17.26
2017-10-11T11:07:13.477Z,17.46
2017-10-11T11:08:35.754Z,17.59
2017-10-11T11:09:57.664Z,17.52
2017-10-11T11:11:20.327Z,17.44
2017-10-11T11:12:42.210Z,17.37
2017-10-11T11:14:04.755Z,17.46
2017-10-11T11:15:27.011Z,17.48
2017-10-11T11:16:49.557Z,17.58
2017-10-11T11:18:11.093Z,17.62
2017-10-11T11:19:33.623Z,17.72
2017-10-11T11:20:55.571Z,17.59
2017-10-11T11:22:17.269Z,17.55
2017-10-11T11:23:39.486Z,17.68
2017-10-11T11:25:02.034Z,17.62
2017-10-11T11:26:24.274Z,17.72
2017-10-11T11:27:46.156Z,17.81
2017-10-11T11:29:08.036Z,17.71
2017-10-11T11:30:30.247Z,17.62
2017-10-11T11:31:51.455Z,17.59
2017-10-11T11:33:14.067Z,17.54
2017-10-11T11:34:36.362Z,17.56
2017-10-11T11:35:58.697Z,17.54
2017-10-11T11:37:20.573Z,17.46
2017-10-11T11:38:43.136Z,17.34
2017-10-11T11:40:05.014Z,17.51
2017-10-11T11:41:27.545Z,17.56
2017-10-11T11:42:49.914Z,17.79
2017-10-11T11:44:11.438Z,18.11
2017-10-11T11:45:33.074Z,18.18
2017-10-11T11:46:54.956Z,18.2
2017-10-11T11:48:17.416Z,18.52
2017-10-11T11:49:39.946Z,18.63
2017-10-11T11:51:02.136Z,18.65
2017-10-11T11:52:24.696Z,18.84
2017-10-11T11:53:47.364Z,19.02
2017-10-11T11:55:09.601Z,18.98
2017-10-11T11:56:31.888Z,18.88
2017-10-11T11:57:53.775Z,18.99
2017-10-11T11:59:15.987Z,19.11
2017-10-11T12:00:38.188Z,18.94
2017-10-11T12:02:00.494Z,18.94
2017-10-11T12:03:22.717Z,18.99
2017-10-11T12:04:45.261Z,18.94
2017-10-11T12:06:07.168Z,19.18
2017-10-11T12:07:29.410Z,19.31
2017-10-11T12:08:51.292Z,19.41
2017-10-11T12:10:14.085Z,19.51
2017-10-11T12:11:35.975Z,19.47
2017-10-11T12:12:58.408Z,19.37
2017-10-11T12:14:20.954Z,19.18
2017-10-11T12:15:44.035Z,19.23
2017-10-11T12:17:06.685Z,19.26
2017-10-11T12:18:28.545Z,19.22
2017-10-11T12:19:50.789Z,19.25
2017-10-11T12:21:13.454Z,19.39
2017-10-11T12:22:35.706Z,19.44
2017-10-11T12:23:57.949Z,19.48
2017-10-11T12:25:20.176Z,19.56
2017-10-11T12:26:42.735Z,19.39
2017-10-11T12:28:04.637Z,19.4
2017-10-11T12:29:26.905Z,19.37
2017-10-11T12:30:48.799Z,19.39
2017-10-11T12:32:11.672Z,19.37
2017-10-11T12:33:34.225Z,19.33
2017-10-11T12:34:56.456Z,19.36
2017-10-11T12:36:18.666Z,19.26
2017-10-11T12:37:40.991Z,19.11
2017-10-11T12:39:03.262Z,19.04
2017-10-11T12:40:25.940Z,19.08
2017-10-11T12:41:47.853Z,19.08
2017-10-11T12:43:09.986Z,19.07
2017-10-11T12:44:32.605Z,18.92
2017-10-11T12:45:54.525Z,18.91
2017-10-11T12:47:17.076Z,18.87
2017-10-11T12:48:38.944Z,18.81
2017-10-11T12:50:01.494Z,18.75
2017-10-11T12:51:23.724Z,18.73
2017-10-11T12:52:45.724Z,18.69
2017-10-11T12:54:07.936Z,18.51
2017-10-11T12:55:29.810Z,18.33
2017-10-11T12:56:51.684Z,18.2
2017-10-11T12:58:13.935Z,18.14
2017-10-11T12:59:36.614Z,17.97
2017-10-11T13:00:59.249Z,17.89
2017-10-11T13:02:21.106Z,17.71
2017-10-11T13:03:43.335Z,17.63
2017-10-11T13:05:05.888Z,17.59
2017-10-11T13:06:27.753Z,17.55
2017-10-11T13:07:50.028Z,17.58
2017-10-11T13:09:12.224Z,17.54
2017-10-11T13:10:34.445Z,17.56
2017-10-11T13:11:56.634Z,17.54
2017-10-11T13:13:18.843Z,17.54
2017-10-11T13:14:41.054Z,17.46
2017-10-11T13:16:03.593Z,17.48
2017-10-11T13:17:25.794Z,17.43
2017-10-11T13:18:47.675Z,17.44
2017-10-11T13:20:09.947Z,17.52
2017-10-11T13:21:32.166Z,17.56
2017-10-11T13:22:54.701Z,17.7
2017-10-11T13:24:16.565Z,17.89
2017-10-11T13:25:39.138Z,17.89
2017-10-11T13:27:01.333Z,17.87
2017-10-11T13:28:23.885Z,17.86
2017-10-11T13:29:46.097Z,17.92
2017-10-11T13:31:08.625Z,17.95
2017-10-11T13:32:30.956Z,18.11
2017-10-11T13:33:53.520Z,18.15
2017-10-11T13:35:16.065Z,18.45
2017-10-11T13:36:37.656Z,18.58
2017-10-11T13:37:59.524Z,18.69
2017-10-11T13:39:22.046Z,18.81
2017-10-11T13:40:44.594Z,18.81
2017-10-11T13:42:06.797Z,18.7
2017-10-11T13:43:28.645Z,18.65
2017-10-11T13:44:51.193Z,18.6
2017-10-11T13:46:13.395Z,18.62
2017-10-11T13:47:36.015Z,18.45
2017-10-11T13:48:58.268Z,18.35
2017-10-11T13:50:20.470Z,18.2
2017-10-11T13:51:42.368Z,18.21
2017-10-11T13:53:04.946Z,18.15
2017-10-11T13:54:27.451Z,18.23
2017-10-11T13:55:50.035Z,18.39
2017-10-11T13:57:12.599Z,18.39
2017-10-11T13:58:34.805Z,18.45
2017-10-11T13:59:56.345Z,18.51
2017-10-11T14:01:18.887Z,18.52
2017-10-11T14:02:40.746Z,18.47
2017-10-11T14:04:02.622Z,18.39
2017-10-11T14:05:24.868Z,18.25
2017-10-11T14:06:46.045Z,18.14
2017-10-11T14:08:07.900Z,18.08
2017-10-11T14:09:29.760Z,17.89
2017-10-11T14:10:52.310Z,17.75
2017-10-11T14:12:14.512Z,17.7
2017-10-11T14:13:36.413Z,17.55
2017-10-11T14:14:58.307Z,17.54
2017-10-11T14:16:20.490Z,17.44
2017-10-11T14:17:42.686Z,17.51
2017-10-11T14:19:05.207Z,17.28
2017-10-11T14:20:27.408Z,17.31
2017-10-11T14:21:49.885Z,17.37
2017-10-11T14:23:12.085Z,17.46
2017-10-11T14:24:34.635Z,17.44
2017-10-11T14:25:55.835Z,17.55
2017-10-11T14:27:18.224Z,17.64
2017-10-11T14:28:40.768Z,17.71
2017-10-11T14:30:03.508Z,17.74
2017-10-11T14:31:26.093Z,17.58
2017-10-11T14:32:48.931Z,17.49
2017-10-11T14:34:11.187Z,17.55
2017-10-11T14:35:33.407Z,17.38
2017-10-11T14:36:55.276Z,17.36
2017-10-11T14:38:17.206Z,17.31
2017-10-11T14:39:39.458Z,17.19
2017-10-11T14:41:01.655Z,17.21
2017-10-11T14:42:24.197Z,17.16
2017-10-11T14:43:45.719Z,17.08
2017-10-11T14:45:07.944Z,17.12
2017-10-11T14:46:30.038Z,17.12
2017-10-11T14:47:52.209Z,17.15
2017-10-11T14:49:14.077Z,17.15
2017-10-11T14:50:35.597Z,17.19
2017-10-11T14:51:58.106Z,17.16
2017-10-11T14:53:20.315Z,17.14
2017-10-11T14:54:42.316Z,17.21
2017-10-11T14:56:04.566Z,17.11
2017-10-11T14:57:26.462Z,17.06
2017-10-11T14:58:47.985Z,17.08
2017-10-11T15:00:09.836Z,17.06
2017-10-11T15:01:31.137Z,17
2017-10-11T15:02:52.992Z,17.03
2017-10-11T15:04:14.958Z,17
2017-10-11T15:05:37.278Z,16.97
2017-10-11T15:06:59.455Z,16.91
2017-10-11T15:08:21.065Z,16.88
2017-10-11T15:09:43.644Z,16.86
2017-10-11T15:11:05.833Z,16.78
2017-10-11T15:12:28.377Z,16.82
2017-10-11T15:13:50.265Z,16.83
2017-10-11T15:15:12.465Z,16.83
2017-10-11T15:16:34.987Z,16.78
2017-10-11T15:17:56.497Z,16.66
2017-10-11T15:19:19.093Z,16.75
2017-10-11T15:20:41.292Z,16.79
2017-10-11T15:22:03.797Z,16.68
2017-10-11T15:23:25.319Z,16.81
2017-10-11T15:24:47.527Z,16.83
2017-10-11T15:26:09.732Z,16.81
2017-10-11T15:27:31.930Z,16.82
2017-10-11T15:28:54.128Z,16.83
2017-10-11T15:30:16.679Z,16.85
2017-10-11T15:31:39.220Z,16.85
2017-10-11T15:33:00.744Z,16.86
2017-10-11T15:34:22.610Z,16.85
2017-10-11T15:35:44.795Z,16.86
2017-10-11T15:37:06.657Z,16.85
2017-10-11T15:38:28.650Z,16.82
2017-10-11T15:39:50.850Z,16.85
2017-10-11T15:41:13.378Z,16.79
2017-10-11T15:42:35.688Z,16.68
2017-10-11T15:43:58.146Z,16.64
2017-10-11T15:45:20.379Z,16.7
2017-10-11T15:46:42.238Z,16.52
2017-10-11T15:48:04.995Z,16.52
2017-10-11T15:49:27.565Z,16.56
2017-10-11T15:50:49.432Z,16.46
2017-10-11T15:52:11.641Z,16.48
2017-10-11T15:53:33.961Z,16.42
2017-10-11T15:54:55.824Z,16.42
2017-10-11T15:56:18.504Z,16.42
2017-10-11T15:57:41.029Z,16.43
2017-10-11T15:59:03.001Z,16.41
2017-10-11T16:00:25.184Z,16.39
2017-10-11T16:01:47.816Z,16.38
2017-10-11T16:03:09.996Z,16.3
2017-10-11T16:04:32.227Z,16.3
2017-10-11T16:05:54.770Z,16.34
2017-10-11T16:07:16.622Z,16.33
2017-10-11T16:08:38.595Z,16.27
2017-10-11T16:10:00.468Z,16.23
2017-10-11T16:11:22.981Z,16.27
2017-10-11T16:12:45.277Z,16.27
2017-10-11T16:14:07.798Z,16.24
2017-10-11T16:15:30.021Z,16.21
2017-10-11T16:16:52.231Z,16.3
2017-10-11T16:18:14.776Z,16.24
2017-10-11T16:19:37.314Z,16.23
2017-10-11T16:20:59.988Z,16.2
2017-10-11T16:22:22.867Z,16.21
2017-10-11T16:23:45.416Z,16.17
2017-10-11T16:25:07.958Z,16.14
2017-10-11T16:26:30.176Z,16.12
2017-10-11T16:27:53.072Z,16.12
2017-10-11T16:29:15.404Z,16.11
2017-10-11T16:30:37.633Z,16.09
2017-10-11T16:31:59.817Z,16.07
2017-10-11T16:33:22.427Z,16.07
2017-10-11T16:34:44.628Z,16.08
2017-10-11T16:36:06.833Z,16.04
2017-10-11T16:37:29.388Z,15.96
2017-10-11T16:38:51.934Z,16.01
2017-10-11T16:40:14.188Z,15.96
2017-10-11T16:41:36.408Z,15.93
2017-10-11T16:42:58.646Z,16.02
2017-10-11T16:44:20.910Z,15.89
2017-10-11T16:45:43.157Z,15.93
2017-10-11T16:47:05.705Z,15.89
2017-10-11T16:48:27.905Z,15.87
2017-10-11T16:49:50.783Z,15.93
2017-10-11T16:51:12.987Z,15.93
2017-10-11T16:52:35.186Z,15.87
2017-10-11T16:53:57.068Z,15.89
2017-10-11T16:55:19.379Z,15.84
2017-10-11T16:56:41.937Z,15.78
2017-10-11T16:58:04.148Z,15.78
2017-10-11T16:59:26.395Z,15.72
2017-10-11T17:00:48.607Z,15.8
2017-10-11T17:02:10.795Z,15.75
2017-10-11T17:03:32.668Z,15.8
2017-10-11T17:04:55.243Z,15.76
2017-10-11T17:06:18.157Z,15.76
2017-10-11T17:07:40.446Z,15.76
2017-10-11T17:09:02.987Z,15.72
2017-10-11T17:10:25.209Z,15.82
2017-10-11T17:11:47.770Z,15.76
2017-10-11T17:13:09.982Z,15.8
2017-10-11T17:14:32.035Z,15.82
2017-10-11T17:15:54.567Z,15.74
2017-10-11T17:17:16.798Z,15.8
2017-10-11T17:18:38.676Z,15.67
2017-10-11T17:20:00.899Z,15.69
2017-10-11T17:21:23.436Z,15.69
2017-10-11T17:22:45.755Z,15.83
2017-10-11T17:24:07.983Z,15.72
2017-10-11T17:25:30.589Z,15.74
2017-10-11T17:26:52.800Z,15.74
2017-10-11T17:28:15.420Z,15.69
2017-10-11T17:29:37.642Z,15.69
2017-10-11T17:31:00.178Z,15.69
2017-10-11T17:32:22.076Z,15.62
2017-10-11T17:33:44.668Z,15.72
2017-10-11T17:35:07.209Z,15.72
2017-10-11T17:36:28.777Z,15.72
2017-10-11T17:37:51.026Z,15.71
2017-10-11T17:39:13.587Z,15.72
2017-10-11T17:40:35.906Z,15.6